createdAt,value
2019-01-12T00:00:51.581Z,8.67
2019-01-12T00:02:59.922Z,5.87
2019-01-12T00:05:05.888Z,5.40
2019-01-12T00:07:10.766Z,5.77
2019-01-12T00:09:16.002Z,5.23
2019-01-12T00:11:20.225Z,16.90
2019-01-12T00:13:25.119Z,6.03
2019-01-12T00:15:30.070Z,5.40
2019-01-12T00:17:34.315Z,216.90
2019-01-12T00:19:38.709Z,15.43
2019-01-12T00:21:47.477Z,5.93
2019-01-12T00:23:53.725Z,6.63
2019-01-12T00:26:06.173Z,5.40
2019-01-12T00:28:12.692Z,25.67
2019-01-12T00:30:22.239Z,101.80
2019-01-12T00:32:24.416Z,26.20
2019-01-12T00:34:28.964Z,7.30
2019-01-12T00:36:33.690Z,4.37
2019-01-12T00:38:39.116Z,6.90
2019-01-12T00:40:43.999Z,4.60
2019-01-12T00:42:51.412Z,13.07
2019-01-12T00:45:11.395Z,27.13
2019-01-12T00:47:17.158Z,24.43
2019-01-12T00:49:22.047Z,49.23
2019-01-12T00:51:29.928Z,5.70
2019-01-12T00:53:34.861Z,6.83
2019-01-12T00:55:39.760Z,4.80
2019-01-12T00:57:44.035Z,4.43
2019-01-12T00:59:49.473Z,6.27
2019-01-12T01:01:55.870Z,3.90
2019-01-12T01:04:02.475Z,4.20
2019-01-12T01:06:08.639Z,4.40
2019-01-12T01:08:13.253Z,4.67
2019-01-12T01:10:19.747Z,4.30
2019-01-12T01:12:29.870Z,14.03
2019-01-12T01:14:44.032Z,33.70
2019-01-12T01:16:48.201Z,412.20
2019-01-12T01:18:53.241Z,573.47
2019-01-12T01:20:57.525Z,583.50
2019-01-12T01:23:01.701Z,352.60
2019-01-12T01:25:07.102Z,675.03
2019-01-12T01:27:11.247Z,140.50
2019-01-12T01:29:15.559Z,18.97
2019-01-12T01:31:20.004Z,1132.73
2019-01-12T01:33:28.090Z,874.10
2019-01-12T01:35:33.738Z,695.73
2019-01-12T01:37:38.844Z,649.67
2019-01-12T01:39:45.557Z,162.63
2019-01-12T01:41:49.847Z,36.47
2019-01-12T01:43:54.402Z,396.77
2019-01-12T01:45:58.646Z,73.87
2019-01-12T01:48:02.913Z,32.70
2019-01-12T01:50:08.172Z,70.17
2019-01-12T01:52:12.296Z,16.80
2019-01-12T01:54:16.446Z,11.33
2019-01-12T01:56:20.873Z,8.83
2019-01-12T01:58:25.136Z,5.43
2019-01-12T02:00:30.074Z,1112.00
2019-01-12T02:02:36.299Z,641.23
2019-01-12T02:04:44.818Z,181.17
2019-01-12T02:06:53.077Z,705.60
2019-01-12T02:08:57.895Z,1194.33
2019-01-12T02:11:04.265Z,1140.87
2019-01-12T02:13:08.567Z,558.43
2019-01-12T02:15:13.217Z,276.33
2019-01-12T02:17:18.050Z,77.97
2019-01-12T02:19:22.594Z,32.53
2019-01-12T02:21:26.819Z,17.67
2019-01-12T02:23:31.042Z,8.80
2019-01-12T02:25:38.374Z,7.20
2019-01-12T02:27:52.748Z,7.77
2019-01-12T02:29:56.971Z,7.13
2019-01-12T02:32:01.466Z,6.10
2019-01-12T02:34:05.776Z,7.20
2019-01-12T02:36:10.076Z,7.37
2019-01-12T02:38:14.296Z,5.87
2019-01-12T02:40:18.502Z,5.67
2019-01-12T02:42:22.629Z,5.20
2019-01-12T02:44:27.065Z,5.77
2019-01-12T02:46:31.252Z,5.30
2019-01-12T02:48:35.364Z,6.83
2019-01-12T02:50:42.826Z,5.50
2019-01-12T02:52:49.021Z,4.73
2019-01-12T02:54:57.831Z,4.73
2019-01-12T02:57:03.119Z,4.70
2019-01-12T02:59:07.253Z,5.50
2019-01-12T03:01:11.453Z,5.17
2019-01-12T03:03:15.568Z,5.17
2019-01-12T03:05:19.708Z,4.80
2019-01-12T03:07:23.830Z,5.23
2019-01-12T03:09:28.256Z,4.87
2019-01-12T03:11:32.337Z,4.33
2019-01-12T03:13:36.463Z,5.10
2019-01-12T03:15:41.030Z,4.03
2019-01-12T03:17:47.022Z,5.37
2019-01-12T03:19:53.239Z,5.00
2019-01-12T03:22:01.978Z,4.60
2019-01-12T03:24:06.126Z,5.90
2019-01-12T03:26:10.768Z,4.63
2019-01-12T03:28:14.966Z,7.20
2019-01-12T03:30:19.696Z,4.73
2019-01-12T03:32:23.870Z,3.67
2019-01-12T03:34:28.576Z,3.80
2019-01-12T03:36:32.779Z,3.90
2019-01-12T03:38:36.986Z,3.97
2019-01-12T03:40:41.421Z,4.30
2019-01-12T03:42:45.912Z,5.23
2019-01-12T03:44:52.144Z,4.13
2019-01-12T03:47:01.550Z,6.37
2019-01-12T03:49:11.579Z,5.40
2019-01-12T03:51:16.479Z,3.03
2019-01-12T03:53:20.649Z,4.80
2019-01-12T03:55:29.046Z,3.47
2019-01-12T03:57:35.089Z,3.57
2019-01-12T03:59:40.455Z,12.23
2019-01-12T04:01:45.596Z,4.60
2019-01-12T04:03:51.805Z,3.63
2019-01-12T04:06:00.538Z,3.37
2019-01-12T04:08:07.893Z,4.00
2019-01-12T04:10:15.785Z,4.50
2019-01-12T04:12:22.835Z,2.90
2019-01-12T04:14:29.061Z,3.37
2019-01-12T04:16:34.921Z,3.43
2019-01-12T04:18:44.248Z,3.67
2019-01-12T04:20:48.457Z,2.70
2019-01-12T04:22:53.154Z,2.80
2019-01-12T04:24:57.939Z,2.90
2019-01-12T04:27:02.058Z,3.03
2019-01-12T04:29:07.001Z,2.70
2019-01-12T04:31:11.479Z,2.80
2019-01-12T04:33:15.991Z,2.57
2019-01-12T04:35:20.504Z,3.37
2019-01-12T04:37:24.920Z,2.30
2019-01-12T04:39:30.190Z,3.07
2019-01-12T04:41:36.778Z,3.10
2019-01-12T04:43:42.681Z,2.80
2019-01-12T04:45:49.896Z,2.63
2019-01-12T04:47:55.003Z,2.80
2019-01-12T04:49:59.126Z,2.73
2019-01-12T04:52:03.778Z,3.00
2019-01-12T04:54:08.561Z,2.67
2019-01-12T04:56:12.957Z,2.73
2019-01-12T04:58:17.358Z,2.90
2019-01-12T05:00:22.949Z,2.87
2019-01-12T05:02:27.967Z,2.77
2019-01-12T05:04:33.021Z,3.07
2019-01-12T05:06:39.219Z,2.20
2019-01-12T05:08:46.969Z,2.07
2019-01-12T05:10:57.369Z,2.53
2019-01-12T05:13:01.589Z,2.30
2019-01-12T05:15:06.690Z,2.33
2019-01-12T05:17:12.338Z,2.40
2019-01-12T05:19:18.817Z,2.77
2019-01-12T05:21:23.680Z,2.90
2019-01-12T05:23:27.903Z,2.07
2019-01-12T05:25:35.676Z,2.03
2019-01-12T05:27:43.769Z,2.00
2019-01-12T05:29:49.550Z,2.37
2019-01-12T05:31:55.462Z,1.90
2019-01-12T05:34:00.322Z,2.17
2019-01-12T05:36:04.921Z,2.03
2019-01-12T05:38:09.444Z,2.07
2019-01-12T05:40:15.716Z,1.77
2019-01-12T05:42:20.200Z,2.10
2019-01-12T05:44:24.933Z,1.87
2019-01-12T05:46:29.396Z,1.67
2019-01-12T05:48:33.541Z,1.70
2019-01-12T05:50:41.422Z,2.03
2019-01-12T05:52:48.233Z,2.43
2019-01-12T05:54:58.091Z,2.50
2019-01-12T05:57:02.926Z,2.27
2019-01-12T05:59:07.028Z,1.60
2019-01-12T06:01:12.423Z,1.60
2019-01-12T06:03:17.750Z,1.47
2019-01-12T06:05:22.792Z,1.50
2019-01-12T06:07:27.869Z,1.73
2019-01-12T06:09:32.729Z,1.57
2019-01-12T06:11:37.473Z,1.67
2019-01-12T06:13:42.994Z,2.10
2019-01-12T06:15:51.881Z,1.50
2019-01-12T06:17:58.531Z,1.97
2019-01-12T06:20:07.370Z,1.57
2019-01-12T06:22:11.780Z,1.40
2019-01-12T06:24:16.023Z,1.43
2019-01-12T06:26:20.448Z,1.60
2019-01-12T06:28:25.075Z,1.53
2019-01-12T06:30:29.160Z,1.60
2019-01-12T06:32:33.485Z,1.17
2019-01-12T06:34:38.441Z,1.43
2019-01-12T06:36:46.999Z,1.57
2019-01-12T06:41:18.509Z,1.40
2019-01-12T06:43:23.035Z,1.57
2019-01-12T06:45:27.737Z,1.27
2019-01-12T06:47:32.707Z,1.13
2019-01-12T06:49:37.312Z,1.50
2019-01-12T06:51:43.026Z,1.40
2019-01-12T06:53:48.514Z,1.30
2019-01-12T06:55:54.333Z,1.87
2019-01-12T06:58:01.749Z,1.30
2019-01-12T07:00:16.536Z,1.20
2019-01-12T07:02:20.737Z,1.40
2019-01-12T07:04:26.406Z,0.80
2019-01-12T07:06:32.735Z,0.93
2019-01-12T07:08:36.899Z,1.20
2019-01-12T07:10:42.353Z,1.00
2019-01-12T07:12:47.195Z,1.13
2019-01-12T07:14:51.384Z,0.80
2019-01-12T07:16:57.858Z,1.00
2019-01-12T07:19:05.870Z,1.10
2019-01-12T07:21:14.298Z,1.10
2019-01-12T07:23:19.092Z,1.10
2019-01-12T07:25:23.833Z,1.10
2019-01-12T07:27:31.087Z,0.90
2019-01-12T07:29:37.586Z,0.97
2019-01-12T07:31:45.650Z,1.13
2019-01-12T07:33:50.445Z,1.20
2019-01-12T07:35:54.706Z,0.90
2019-01-12T07:37:59.525Z,1.20
2019-01-12T07:40:04.692Z,0.90
2019-01-12T07:42:14.081Z,1.07
2019-01-12T07:44:18.666Z,1.30
2019-01-12T07:46:24.148Z,0.90
2019-01-12T07:48:29.243Z,0.70
2019-01-12T07:50:35.313Z,1.13
2019-01-12T07:52:40.743Z,0.80
2019-01-12T07:54:51.942Z,1.07
2019-01-12T07:56:58.338Z,1.07
2019-01-12T07:59:02.809Z,0.93
2019-01-12T08:01:07.605Z,3.10
2019-01-12T08:03:13.248Z,472.73
2019-01-12T08:05:17.468Z,137.70
2019-01-12T08:07:21.736Z,747.70
2019-01-12T08:09:26.606Z,732.90
2019-01-12T08:11:30.991Z,893.20
2019-01-12T08:13:38.831Z,1158.33
2019-01-12T08:15:47.241Z,829.37
2019-01-12T08:17:52.865Z,1269.63
2019-01-12T08:19:57.100Z,997.77
2019-01-12T08:22:01.787Z,621.20
2019-01-12T08:24:06.435Z,288.37
2019-01-12T08:26:11.310Z,84.93
2019-01-12T08:28:19.319Z,349.37
2019-01-12T08:30:24.231Z,1312.60
2019-01-12T08:32:28.552Z,719.00
2019-01-12T08:34:33.538Z,384.17
2019-01-12T08:36:41.549Z,546.13
2019-01-12T08:38:47.495Z,478.07
2019-01-12T08:40:59.525Z,208.47
2019-01-12T08:43:04.952Z,290.00
2019-01-12T08:45:10.808Z,289.83
2019-01-12T08:47:15.739Z,191.27
2019-01-12T08:49:20.055Z,31.70
2019-01-12T08:51:25.225Z,4.77
2019-01-12T08:53:29.956Z,2.60
2019-01-12T08:55:34.430Z,2.80
2019-01-12T08:57:38.923Z,3.60
2019-01-12T08:59:46.807Z,3.33
2019-01-12T09:02:01.467Z,3.27
2019-01-12T09:04:06.081Z,1.60
2019-01-12T09:06:10.676Z,3.33
2019-01-12T09:08:14.940Z,2.00
2019-01-12T09:10:22.668Z,3.70
2019-01-12T09:12:30.365Z,1.37
2019-01-12T09:14:38.927Z,1.90
2019-01-12T09:16:44.320Z,1.40
2019-01-12T09:18:52.977Z,1.70
2019-01-12T09:21:05.314Z,1.13
2019-01-12T09:23:10.367Z,2.20
2019-01-12T09:25:16.768Z,1.23
2019-01-12T09:27:21.161Z,1.93
2019-01-12T09:29:30.779Z,1.30
2019-01-12T09:31:35.793Z,2.80
2019-01-12T09:33:47.537Z,1.20
2019-01-12T09:35:55.993Z,1.37
2019-01-12T09:38:07.592Z,4.27
2019-01-12T09:40:17.433Z,0.93
2019-01-12T09:42:22.137Z,1.53
2019-01-12T09:44:26.773Z,0.90
2019-01-12T09:46:32.649Z,1.10
2019-01-12T09:48:38.564Z,1.57
2019-01-12T09:54:18.724Z,1.83
2019-01-12T09:56:23.947Z,1.20
2019-01-12T09:58:28.114Z,1.20
2019-01-12T10:00:33.364Z,2.37
2019-01-12T10:02:43.900Z,2.13
2019-01-12T10:04:48.629Z,1.40
2019-01-12T10:06:57.958Z,0.80
2019-01-12T10:09:19.064Z,0.80
2019-01-12T10:11:28.598Z,3.00
2019-01-12T10:13:33.806Z,1.27
2019-01-12T10:15:42.725Z,0.80
2019-01-12T10:17:47.031Z,3.47
2019-01-12T10:19:52.471Z,1.00
2019-01-12T10:21:58.671Z,1.20
2019-01-12T10:24:08.115Z,1.77
2019-01-12T10:26:18.224Z,1.10
2019-01-12T10:28:29.418Z,0.90
2019-01-12T10:30:45.984Z,1.20
2019-01-12T10:32:57.347Z,0.77
2019-01-12T10:35:02.737Z,1.20
2019-01-12T10:37:12.239Z,0.80
2019-01-12T10:39:17.992Z,1.07
2019-01-12T10:41:24.584Z,0.80
2019-01-12T10:43:34.222Z,25.97
2019-01-12T10:45:57.486Z,1.20
2019-01-12T10:48:02.009Z,1.10
2019-01-12T10:50:10.658Z,1.00
2019-01-12T10:52:18.324Z,2.00
2019-01-12T10:54:22.961Z,1.07
2019-01-12T10:56:27.902Z,1.40
2019-01-12T10:58:35.677Z,33.70
2019-01-12T11:00:42.874Z,221.00
2019-01-12T11:02:57.343Z,605.07
2019-01-12T11:05:04.670Z,965.97
2019-01-12T11:07:14.355Z,793.60
2019-01-12T11:09:19.498Z,588.67
2019-01-12T11:11:24.084Z,653.43
2019-01-12T11:13:32.575Z,498.77
2019-01-12T11:15:47.315Z,207.53
2019-01-12T11:17:54.539Z,27.37
2019-01-12T11:19:58.968Z,47.37
2019-01-12T11:22:04.342Z,601.60
2019-01-12T11:24:13.898Z,547.20
2019-01-12T11:26:18.869Z,495.87
2019-01-12T11:28:26.829Z,455.80
2019-01-12T11:30:34.696Z,570.60
2019-01-12T11:32:41.549Z,826.33
2019-01-12T11:34:49.592Z,656.53
2019-01-12T11:36:58.875Z,426.73
2019-01-12T11:39:06.579Z,225.80
2019-01-12T11:41:17.419Z,63.63
2019-01-12T11:43:26.826Z,19.27
2019-01-12T11:45:34.869Z,6.93
2019-01-12T11:47:49.569Z,6.70
2019-01-12T11:49:59.844Z,3.27
2019-01-12T11:52:20.113Z,3.03
2019-01-12T11:54:25.763Z,2.70
2019-01-12T11:56:35.213Z,2.87
2019-01-12T11:58:47.353Z,2.73
2019-01-12T12:01:02.350Z,2.70
2019-01-12T12:03:24.474Z,2.83
2019-01-12T12:05:30.300Z,2.90
2019-01-12T12:07:41.169Z,2.77
2019-01-12T12:10:03.340Z,2.03
2019-01-12T12:12:08.197Z,1.80
2019-01-12T12:14:24.384Z,3.23
2019-01-12T12:16:32.458Z,2.07
2019-01-12T12:18:40.574Z,2.30
2019-01-12T12:20:51.979Z,2.37
2019-01-12T12:23:07.846Z,2.03
2019-01-12T12:25:17.796Z,2.50
2019-01-12T12:27:26.142Z,2.80
2019-01-12T12:29:29.399Z,2.53
2019-01-12T12:31:38.880Z,2.90
2019-01-12T12:33:44.828Z,2.03
2019-01-12T12:36:02.000Z,2.77
2019-01-12T12:38:09.091Z,2.30
2019-01-12T12:40:17.922Z,2.57
2019-01-12T12:42:30.394Z,2.00
2019-01-12T12:44:42.733Z,2.03
2019-01-12T12:46:47.660Z,2.00
2019-01-12T12:49:02.437Z,2.03
2019-01-12T12:51:21.280Z,2.20
2019-01-12T12:53:26.202Z,2.33
2019-01-12T12:55:31.681Z,2.60
2019-01-12T12:57:40.719Z,1.73
2019-01-12T12:59:48.671Z,2.00
2019-01-12T13:02:00.600Z,2.43
2019-01-12T13:04:09.731Z,2.33
2019-01-12T13:06:20.156Z,2.20
2019-01-12T13:08:25.442Z,2.50
2019-01-12T13:10:31.781Z,1.87
2019-01-12T13:12:40.343Z,1.90
2019-01-12T13:14:45.215Z,2.20
2019-01-12T13:16:50.178Z,2.07
2019-01-12T13:18:59.137Z,1.70
2019-01-12T13:21:19.143Z,2.30
2019-01-12T13:23:32.821Z,1.87
2019-01-12T13:26:35.625Z,2.13
2019-01-12T13:28:49.936Z,2.20
2019-01-12T13:30:59.039Z,2.27
2019-01-12T13:33:16.847Z,2.20
2019-01-12T13:35:23.509Z,2.10
2019-01-12T13:37:29.618Z,2.00
2019-01-12T13:39:35.937Z,2.30
2019-01-12T13:41:41.113Z,2.20
2019-01-12T13:43:49.500Z,2.10
2019-01-12T13:45:55.185Z,1.70
2019-01-12T13:48:01.259Z,1.77
2019-01-12T13:50:11.983Z,2.10
2019-01-12T13:52:22.381Z,2.00
2019-01-12T13:54:28.006Z,1.87
2019-01-12T13:56:33.995Z,2.10
2019-01-12T13:58:43.851Z,2.23
2019-01-12T14:00:53.550Z,1.80
2019-01-12T14:02:58.523Z,2.10
2019-01-12T14:05:03.721Z,2.03
2019-01-12T14:07:09.487Z,1.90
2019-01-12T14:09:17.925Z,2.10
2019-01-12T14:11:22.534Z,1.80
2019-01-12T14:13:27.858Z,1.90
2019-01-12T14:15:33.010Z,1.83
2019-01-12T14:17:39.831Z,1.93
2019-01-12T14:19:47.025Z,1.80
2019-01-12T14:21:57.287Z,1.73
2019-01-12T14:24:01.479Z,1.70
2019-01-12T14:26:05.838Z,2.03
2019-01-12T14:28:10.998Z,1.27
2019-01-12T14:30:16.841Z,1.80
2019-01-12T14:32:23.215Z,1.60
2019-01-12T14:34:28.045Z,1.77
2019-01-12T14:36:32.224Z,1.80
2019-01-12T14:38:39.080Z,1.50
2019-01-12T14:40:47.513Z,1.70
2019-01-12T14:42:53.293Z,1.80
2019-01-12T14:45:02.212Z,1.73
2019-01-12T14:47:07.297Z,1.40
2019-01-12T14:49:13.740Z,1.60
2019-01-12T14:51:18.298Z,1.30
2019-01-12T14:53:23.000Z,1.50
2019-01-12T14:55:27.084Z,1.60
2019-01-12T14:57:31.242Z,1.50
2019-01-12T14:59:35.797Z,1.63
2019-01-12T15:01:40.108Z,1.50
2019-01-12T15:03:47.184Z,1.23
2019-01-12T15:05:54.373Z,1.17
2019-01-12T15:08:00.863Z,1.30
2019-01-12T15:10:09.477Z,1.20
2019-01-12T15:12:14.613Z,1.30
2019-01-12T15:14:18.797Z,1.30
2019-01-12T15:16:24.193Z,1.33
2019-01-12T15:18:29.076Z,1.20
2019-01-12T15:20:33.374Z,1.37
2019-01-12T15:22:37.602Z,1.20
2019-01-12T15:24:42.481Z,1.10
2019-01-12T15:26:46.791Z,1.10
2019-01-12T15:28:51.647Z,1.13
2019-01-12T15:31:00.233Z,1.27
2019-01-12T15:33:12.440Z,1.03
2019-01-12T15:35:17.785Z,1.33
2019-01-12T15:37:23.021Z,1.10
2019-01-12T15:39:27.256Z,1.40
2019-01-12T15:41:31.835Z,0.90
2019-01-12T15:43:37.620Z,1.13
2019-01-12T15:45:42.359Z,1.00
2019-01-12T15:47:46.744Z,0.80
2019-01-12T15:49:52.021Z,1.03
2019-01-12T15:51:57.872Z,1.00
2019-01-12T15:54:06.871Z,1.10
2019-01-12T15:56:12.228Z,1.30
2019-01-12T15:58:16.981Z,1.30
2019-01-12T16:00:23.339Z,1.03
2019-01-12T16:02:29.757Z,1.10
2019-01-12T16:04:36.125Z,1.30
2019-01-12T16:06:41.119Z,1.40
2019-01-12T16:08:45.928Z,1.10
2019-01-12T16:10:50.711Z,1.33
2019-01-12T16:12:54.943Z,1.10
2019-01-12T16:15:01.661Z,1.10
2019-01-12T16:17:15.959Z,1.17
2019-01-12T16:19:20.249Z,1.33
2019-01-12T16:21:25.207Z,1.10
2019-01-12T16:23:30.402Z,0.90
2019-01-12T16:25:38.959Z,1.10
2019-01-12T16:27:53.972Z,1.10
2019-01-12T16:29:58.337Z,1.07
2019-01-12T16:32:02.916Z,0.90
2019-01-12T16:34:14.933Z,1.00
2019-01-12T16:36:19.590Z,1.00
2019-01-12T16:38:24.301Z,1.23
2019-01-12T16:40:28.518Z,1.40
2019-01-12T16:42:34.336Z,1.00
2019-01-12T16:44:40.020Z,1.27
2019-01-12T16:46:47.952Z,1.00
2019-01-12T16:48:52.739Z,0.80
2019-01-12T16:50:57.109Z,1.00
2019-01-12T16:53:01.352Z,1.10
2019-01-12T16:55:06.572Z,1.20
2019-01-12T16:57:11.301Z,1.07
2019-01-12T16:59:15.557Z,1.20
2019-01-12T17:01:19.905Z,1.10
2019-01-12T17:03:24.643Z,1.17
2019-01-12T17:05:31.359Z,1.10
2019-01-12T17:07:37.185Z,1.03
2019-01-12T17:09:45.323Z,1.10
2019-01-12T17:11:55.675Z,1.10
2019-01-12T17:14:00.080Z,1.10
2019-01-12T17:16:06.657Z,1.20
2019-01-12T17:18:11.180Z,1.10
2019-01-12T17:20:20.550Z,1.20
2019-01-12T17:22:24.772Z,1.47
2019-01-12T17:24:29.433Z,1.10
2019-01-12T17:26:33.748Z,1.07
2019-01-12T17:28:43.944Z,1.10
2019-01-12T17:30:51.934Z,1.03
2019-01-12T17:33:00.816Z,1.10
2019-01-12T17:35:21.866Z,0.90
2019-01-12T17:37:26.156Z,1.30
2019-01-12T17:39:31.886Z,1.20
2019-01-12T17:41:36.421Z,1.27
2019-01-12T17:43:47.100Z,1.23
2019-01-12T17:45:54.740Z,1.23
2019-01-12T17:48:05.035Z,1.20
2019-01-12T17:50:18.480Z,1.10
2019-01-12T17:52:25.109Z,0.77
2019-01-12T17:54:37.029Z,0.90
2019-01-12T17:56:41.738Z,1.27
2019-01-12T17:58:53.574Z,1.60
2019-01-12T18:01:06.501Z,206.50
2019-01-12T18:03:15.327Z,458.80
2019-01-12T18:05:22.604Z,508.90
2019-01-12T18:07:28.695Z,496.70
2019-01-12T18:09:36.364Z,466.27
2019-01-12T18:11:44.682Z,441.37
2019-01-12T18:13:53.979Z,706.80
2019-01-12T18:16:09.126Z,865.30
2019-01-12T18:18:20.595Z,936.87
2019-01-12T18:20:26.422Z,946.47
2019-01-12T18:22:32.590Z,805.17
2019-01-12T18:24:40.502Z,579.63
2019-01-12T18:26:45.396Z,639.10
2019-01-12T18:28:52.847Z,490.70
2019-01-12T18:31:17.812Z,415.67
2019-01-12T18:33:23.848Z,324.13
2019-01-12T18:35:33.256Z,263.77
2019-01-12T18:37:40.878Z,260.67
2019-01-12T18:39:45.840Z,260.07
2019-01-12T18:41:53.090Z,298.10
2019-01-12T18:44:11.573Z,328.47
2019-01-12T18:46:16.471Z,388.83
2019-01-12T18:48:24.569Z,420.33
2019-01-12T18:50:33.485Z,500.43
2019-01-12T18:52:40.846Z,520.57
2019-01-12T18:54:45.682Z,510.20
2019-01-12T18:56:51.653Z,497.07
2019-01-12T18:58:59.282Z,494.57
2019-01-12T19:01:15.730Z,488.20
2019-01-12T19:03:24.826Z,473.40
2019-01-12T19:05:30.504Z,459.07
2019-01-12T19:07:36.440Z,447.53
2019-01-12T19:09:41.392Z,440.10
2019-01-12T19:11:51.149Z,431.40
2019-01-12T19:13:56.124Z,408.60
2019-01-12T19:16:17.084Z,384.47
2019-01-12T19:18:23.183Z,378.30
2019-01-12T19:20:36.975Z,377.97
2019-01-12T19:22:43.120Z,327.33
2019-01-12T19:24:48.758Z,332.33
2019-01-12T19:26:59.979Z,307.53
2019-01-12T19:29:06.999Z,293.00
2019-01-12T19:31:17.800Z,278.00
2019-01-12T19:33:24.678Z,273.60
2019-01-12T19:35:29.888Z,268.63
2019-01-12T19:37:39.732Z,425.17
2019-01-12T19:39:48.214Z,575.30
2019-01-12T19:41:58.952Z,674.17
2019-01-12T19:44:11.573Z,681.87
2019-01-12T19:46:16.318Z,650.47
2019-01-12T19:48:23.330Z,622.67
2019-01-12T19:50:28.572Z,595.17
2019-01-12T19:52:34.234Z,575.00
2019-01-12T19:54:43.402Z,564.87
2019-01-12T19:56:58.821Z,547.87
2019-01-12T19:59:17.476Z,531.17
2019-01-12T20:01:23.265Z,514.77
2019-01-12T20:03:33.027Z,510.37
2019-01-12T20:05:39.994Z,486.80
2019-01-12T20:07:59.025Z,482.83
2019-01-12T20:10:16.417Z,464.70
2019-01-12T20:12:25.212Z,548.97
2019-01-12T20:14:30.574Z,698.47
2019-01-12T20:16:37.346Z,726.60
2019-01-12T20:18:46.596Z,757.93
2019-01-12T20:21:08.275Z,714.53
2019-01-12T20:23:17.306Z,677.90
2019-01-12T20:25:26.067Z,707.40
2019-01-12T20:27:33.666Z,855.70
2019-01-12T20:29:40.835Z,851.73
2019-01-12T20:32:32.065Z,863.50
2019-01-12T20:34:46.760Z,808.27
2019-01-12T20:37:47.199Z,767.20
2019-01-12T20:40:18.128Z,726.60
2019-01-12T20:43:12.329Z,705.90
2019-01-12T20:46:05.529Z,752.43
2019-01-12T20:48:42.238Z,844.90
2019-01-12T20:51:05.244Z,843.67
2019-01-12T20:53:42.718Z,820.00
2019-01-12T20:56:28.785Z,788.63
2019-01-12T20:59:14.687Z,759.17
2019-01-12T21:01:47.667Z,721.27
2019-01-12T21:04:28.315Z,700.77
2019-01-12T21:06:56.414Z,683.83
2019-01-12T22:26:23.001Z,633.57
2019-01-12T22:28:28.036Z,607.17
2019-01-12T22:30:34.537Z,587.13
2019-01-12T22:32:40.996Z,577.70
2019-01-12T22:34:48.853Z,651.43
2019-01-12T22:36:56.488Z,750.70
2019-01-12T22:39:03.099Z,781.50
2019-01-12T22:41:11.427Z,783.60
2019-01-12T22:43:17.132Z,746.17
2019-01-12T22:45:22.584Z,740.73
2019-01-12T22:47:37.301Z,716.57
2019-01-12T22:49:44.095Z,696.77
2019-01-12T22:51:56.780Z,671.17
2019-01-12T22:54:01.276Z,660.97
2019-01-12T22:56:06.495Z,1018.07
2019-01-12T22:58:11.401Z,730.30
2019-01-12T23:01:12.751Z,756.23
2019-01-12T23:03:22.245Z,832.40
2019-01-12T23:05:29.069Z,835.37
2019-01-12T23:07:37.622Z,780.90
2019-01-12T23:09:44.032Z,753.63
2019-01-12T23:11:51.802Z,741.40
2019-01-12T23:14:00.349Z,766.70
2019-01-12T23:16:05.321Z,922.23
2019-01-12T23:18:11.376Z,782.87
2019-01-12T23:20:21.209Z,875.23
2019-01-12T23:22:26.829Z,857.23
2019-01-12T23:24:31.031Z,737.57
2019-01-12T23:26:37.824Z,800.80
2019-01-12T23:28:44.265Z,703.20
2019-01-12T23:30:49.942Z,774.93
2019-01-12T23:32:59.876Z,805.80
2019-01-12T23:35:07.477Z,760.20
2019-01-12T23:37:12.131Z,714.33
2019-01-12T23:39:17.077Z,676.13
2019-01-12T23:41:23.538Z,664.43
2019-01-12T23:43:30.359Z,641.50
2019-01-12T23:45:34.864Z,625.13
2019-01-12T23:47:41.265Z,597.77
2019-01-12T23:49:52.112Z,572.80
2019-01-12T23:52:05.866Z,555.77
2019-01-12T23:54:11.250Z,539.90
2019-01-12T23:56:15.803Z,527.40
2019-01-12T23:58:21.062Z,514.70
